Time;durP1;ratioP1;P1;durP2;ratioP2;P2;SDS_P1;SDS_P2;PMS_P1;PMS_P2;Temp;Humidity;BMP_temperature;BMP_pressure;BME280_temperature;BME280_humidity;BME280_pressure;Samples;Min_cycle;Max_cycle;Signal;HPM_P1;HPM_P2
2023/02/13 00:00:50;;;;;;;31.73;15.85;;;;;;;;;;5057956;28;20031;-79
2023/02/13 00:03:36;;;;;;;25.55;14.25;;;;;;;;;;5058123;28;20067;-77
2023/02/13 00:06:22;;;;;;;26.77;14.10;;;;;;;;;;5057869;28;20032;-77
2023/02/13 00:09:09;;;;;;;26.90;13.60;;;;;;;;;;5058783;28;20481;-78
2023/02/13 00:11:55;;;;;;;24.85;13.13;;;;;;;;;;5057192;28;20048;-78
2023/02/13 00:14:41;;;;;;;24.38;13.40;;;;;;;;;;5060990;28;20160;-79
2023/02/13 00:17:26;;;;;;;26.58;13.43;;;;;;;;;;5058413;28;20341;-78
2023/02/13 00:20:12;;;;;;;22.08;12.18;;;;;;;;;;5057417;28;20014;-77
2023/02/13 00:22:58;;;;;;;19.75;10.68;;;;;;;;;;5052724;28;20115;-76
2023/02/13 00:25:43;;;;;;;17.67;10.13;;;;;;;;;;5056295;28;20458;-78
2023/02/13 00:28:29;;;;;;;22.77;11.63;;;;;;;;;;5055122;28;20028;-78
2023/02/13 00:31:16;;;;;;;29.90;17.02;;;;;;;;;;5055880;28;20031;-78
2023/02/13 00:34:02;;;;;;;46.55;28.80;;;;;;;;;;5056323;28;20052;-78
2023/02/13 00:36:47;;;;;;;26.13;16.00;;;;;;;;;;5056287;28;20108;-78
2023/02/13 00:39:33;;;;;;;17.38;10.15;;;;;;;;;;5056168;28;20021;-78
2023/02/13 00:42:22;;;;;;;16.05;9.15;;;;;;;;;;5055765;28;20093;-77
2023/02/13 00:45:08;;;;;;;14.10;8.57;;;;;;;;;;5055909;28;20063;-77
2023/02/13 00:47:54;;;;;;;11.00;7.28;;;;;;;;;;5056369;28;20040;-78
2023/02/13 00:50:39;;;;;;;11.70;6.85;;;;;;;;;;5055976;28;20017;-76
2023/02/13 00:53:25;;;;;;;11.05;6.70;;;;;;;;;;5064360;28;20021;-76
2023/02/13 00:56:11;;;;;;;12.85;6.38;;;;;;;;;;5072856;28;20047;-77
2023/02/13 00:58:56;;;;;;;13.32;7.38;;;;;;;;;;5070294;28;20013;-76
2023/02/13 01:01:42;;;;;;;14.02;7.28;;;;;;;;;;5057826;28;20099;-77
2023/02/13 01:04:28;;;;;;;10.85;6.90;;;;;;;;;;5055501;28;20065;-77
2023/02/13 01:07:13;;;;;;;11.43;6.57;;;;;;;;;;5056213;28;20457;-79
2023/02/13 01:09:59;;;;;;;11.05;6.40;;;;;;;;;;5055161;28;20033;-77
2023/02/13 01:12:44;;;;;;;9.70;5.82;;;;;;;;;;5055453;28;20349;-78
2023/02/13 01:15:31;;;;;;;10.88;6.75;;;;;;;;;;5055801;28;20032;-77
2023/02/13 01:18:18;;;;;;;10.85;6.40;;;;;;;;;;5055218;28;20094;-79
2023/02/13 01:21:13;;;;;;;11.23;6.10;;;;;;;;;;5056552;28;20457;-77
2023/02/13 01:24:01;;;;;;;10.27;5.97;;;;;;;;;;5056095;28;20021;-78
2023/02/13 01:26:47;;;;;;;10.05;5.25;;;;;;;;;;5056014;28;20020;-78
2023/02/13 01:29:32;;;;;;;8.75;5.40;;;;;;;;;;5055197;28;20103;-76
2023/02/13 01:32:18;;;;;;;10.20;6.00;;;;;;;;;;5055114;28;20049;-78
2023/02/13 01:35:04;;;;;;;7.15;4.70;;;;;;;;;;5055570;28;20021;-77
2023/02/13 01:37:50;;;;;;;8.70;5.15;;;;;;;;;;5057802;28;20013;-78
2023/02/13 01:40:35;;;;;;;7.72;5.05;;;;;;;;;;5055198;28;20115;-77
2023/02/13 01:43:24;;;;;;;7.97;4.72;;;;;;;;;;5055078;28;20028;-78
2023/02/13 01:46:10;;;;;;;10.27;5.78;;;;;;;;;;5056194;28;20390;-78
2023/02/13 01:49:00;;;;;;;9.02;5.40;;;;;;;;;;5055231;28;20402;-79
2023/02/13 01:51:48;;;;;;;9.15;5.22;;;;;;;;;;5055260;28;20102;-78
2023/02/13 01:54:34;;;;;;;8.30;4.90;;;;;;;;;;5054858;28;20028;-77
2023/02/13 01:57:21;;;;;;;7.90;4.97;;;;;;;;;;5055010;28;20017;-77
2023/02/13 02:00:08;;;;;;;9.10;4.88;;;;;;;;;;5054876;28;20025;-77
2023/02/13 02:02:56;;;;;;;9.18;5.05;;;;;;;;;;5053934;28;20037;-77
2023/02/13 02:05:42;;;;;;;6.28;4.57;;;;;;;;;;5054725;28;20112;-77
2023/02/13 02:08:28;;;;;;;8.57;4.68;;;;;;;;;;5054246;28;20033;-77
2023/02/13 02:11:21;;;;;;;8.60;4.95;;;;;;;;;;5054736;28;20450;-77
2023/02/13 02:14:07;;;;;;;9.93;4.78;;;;;;;;;;5054794;28;20017;-76
2023/02/13 02:16:53;;;;;;;11.07;5.18;;;;;;;;;;5054313;28;20019;-79
2023/02/13 02:20:01;;;;;;;7.82;4.82;;;;;;;;;;5054330;28;20103;-77
2023/02/13 02:23:04;;;;;;;7.47;4.50;;;;;;;;;;5034362;28;20029;-77
2023/02/13 02:25:59;;;;;;;8.60;4.65;;;;;;;;;;5054313;28;20036;-78
2023/02/13 02:28:47;;;;;;;6.70;4.32;;;;;;;;;;5054533;28;20036;-77
2023/02/13 02:31:39;;;;;;;7.22;4.55;;;;;;;;;;5053768;28;20474;-77
2023/02/13 02:34:30;;;;;;;7.53;4.50;;;;;;;;;;5069329;28;20031;-75
2023/02/13 02:37:35;;;;;;;6.82;4.32;;;;;;;;;;5067840;28;20028;-77
2023/02/13 02:40:24;;;;;;;10.77;4.47;;;;;;;;;;5057559;28;20033;-77
2023/02/13 02:43:17;;;;;;;7.53;4.78;;;;;;;;;;5054597;28;20036;-79
2023/02/13 02:46:09;;;;;;;6.85;4.63;;;;;;;;;;5054204;28;20029;-78
2023/02/13 02:52:15;;;;;;;7.75;4.50;;;;;;;;;;5056412;28;20029;-78
2023/02/13 02:55:09;;;;;;;8.82;4.63;;;;;;;;;;5058421;28;20021;-78
2023/02/13 03:07:39;;;;;;;8.60;4.90;;;;;;;;;;4979789;28;20144;-78
2023/02/13 03:13:40;;;;;;;8.35;5.00;;;;;;;;;;5062904;28;20033;-78
2023/02/13 03:22:58;;;;;;;8.57;5.15;;;;;;;;;;5060768;28;20017;-77
2023/02/13 03:26:01;;;;;;;8.23;4.90;;;;;;;;;;5060884;28;20115;-77
2023/02/13 03:32:00;;;;;;;8.15;4.97;;;;;;;;;;5061061;28;20075;-78
2023/02/13 03:38:01;;;;;;;6.53;4.40;;;;;;;;;;5031600;28;20025;-77
2023/02/13 03:41:18;;;;;;;7.93;4.90;;;;;;;;;;5057863;28;20021;-77
2023/02/13 03:44:12;;;;;;;8.30;4.93;;;;;;;;;;5057365;28;20048;-79
2023/02/13 03:46:59;;;;;;;8.45;4.90;;;;;;;;;;5058031;28;20450;-77
2023/02/13 03:50:06;;;;;;;8.63;4.68;;;;;;;;;;5057597;28;20039;-79
2023/02/13 03:52:54;;;;;;;8.07;4.57;;;;;;;;;;5057151;28;20025;-77
2023/02/13 04:01:58;;;;;;;9.65;5.68;;;;;;;;;;5057967;28;20048;-77
2023/02/13 04:04:53;;;;;;;11.35;5.53;;;;;;;;;;5059091;28;20017;-77
2023/02/13 04:07:38;;;;;;;13.20;5.70;;;;;;;;;;5059594;28;20025;-77
2023/02/13 04:10:26;;;;;;;16.00;7.38;;;;;;;;;;5061612;28;20086;-78
2023/02/13 04:13:26;;;;;;;12.98;7.03;;;;;;;;;;5061475;28;20028;-78
2023/02/13 04:16:15;;;;;;;13.90;6.70;;;;;;;;;;5060398;28;20064;-79
2023/02/13 04:19:01;;;;;;;14.35;8.25;;;;;;;;;;5059755;28;20025;-77
2023/02/13 04:21:48;;;;;;;13.20;7.40;;;;;;;;;;5061724;28;20029;-77
2023/02/13 04:24:34;;;;;;;14.60;7.63;;;;;;;;;;5060920;28;20084;-78
2023/02/13 04:27:19;;;;;;;17.25;7.43;;;;;;;;;;5061400;28;20017;-79
2023/02/13 04:30:05;;;;;;;13.23;6.90;;;;;;;;;;5060492;28;20318;-79
2023/02/13 04:32:51;;;;;;;15.48;7.10;;;;;;;;;;5057061;28;20045;-78
2023/02/13 04:35:37;;;;;;;15.55;7.13;;;;;;;;;;5057345;28;20024;-78
2023/02/13 04:38:23;;;;;;;15.80;7.55;;;;;;;;;;5056302;28;20092;-79
2023/02/13 04:41:08;;;;;;;15.57;7.28;;;;;;;;;;5056952;28;20036;-78
2023/02/13 04:43:54;;;;;;;14.20;7.60;;;;;;;;;;5056779;28;20025;-79
2023/02/13 04:46:39;;;;;;;13.75;7.07;;;;;;;;;;5055700;28;20413;-78
2023/02/13 04:49:25;;;;;;;13.48;7.65;;;;;;;;;;5055985;28;20037;-77
2023/02/13 04:52:11;;;;;;;14.38;6.97;;;;;;;;;;5055746;28;20021;-77
2023/02/13 04:54:56;;;;;;;14.43;6.07;;;;;;;;;;5055753;28;20032;-77
2023/02/13 04:57:42;;;;;;;10.60;6.05;;;;;;;;;;5055886;28;20043;-77
2023/02/13 05:00:28;;;;;;;10.20;5.93;;;;;;;;;;5055914;28;20108;-77
2023/02/13 05:03:13;;;;;;;10.73;5.72;;;;;;;;;;5055812;28;20025;-79
2023/02/13 05:05:59;;;;;;;10.88;6.28;;;;;;;;;;5055401;28;20021;-78
2023/02/13 05:08:44;;;;;;;11.90;6.25;;;;;;;;;;5055664;28;20025;-78
2023/02/13 05:11:30;;;;;;;17.13;7.47;;;;;;;;;;5055403;28;20031;-74
2023/02/13 05:14:16;;;;;;;17.45;8.98;;;;;;;;;;5055897;28;20021;-76
2023/02/13 05:17:01;;;;;;;14.20;7.80;;;;;;;;;;5055235;28;20045;-75
2023/02/13 05:19:47;;;;;;;13.07;7.70;;;;;;;;;;5055143;28;20028;-78
2023/02/13 05:25:37;;;;;;;14.63;8.93;;;;;;;;;;5055869;28;20025;-77
2023/02/13 05:31:27;;;;;;;17.70;8.63;;;;;;;;;;5055184;28;20124;-79
2023/02/13 05:34:12;;;;;;;17.73;8.90;;;;;;;;;;5055010;28;20025;-78
2023/02/13 05:36:59;;;;;;;14.40;8.65;;;;;;;;;;5054914;28;20021;-80
2023/02/13 05:39:45;;;;;;;15.52;9.18;;;;;;;;;;5056168;28;20029;-77
2023/02/13 05:42:30;;;;;;;21.33;9.52;;;;;;;;;;5054280;28;20090;-74
2023/02/13 05:45:16;;;;;;;19.33;10.23;;;;;;;;;;5054664;28;20376;-78
2023/02/13 05:48:01;;;;;;;22.88;11.63;;;;;;;;;;5054663;28;20024;-73
2023/02/13 05:50:47;;;;;;;26.40;13.02;;;;;;;;;;5055603;28;20017;-77
2023/02/13 05:53:35;;;;;;;30.58;14.82;;;;;;;;;;5054417;28;20021;-76
2023/02/13 05:56:21;;;;;;;41.85;17.08;;;;;;;;;;5054494;28;20017;-80
2023/02/13 05:59:07;;;;;;;43.67;17.40;;;;;;;;;;5056607;28;20017;-78
2023/02/13 06:01:53;;;;;;;38.85;17.35;;;;;;;;;;5055500;28;20222;-79
2023/02/13 06:04:40;;;;;;;43.35;18.73;;;;;;;;;;5054539;28;20342;-78
2023/02/13 06:07:25;;;;;;;41.55;18.25;;;;;;;;;;5055556;28;20445;-79
2023/02/13 06:10:11;;;;;;;29.88;14.25;;;;;;;;;;5054607;28;20036;-79
2023/02/13 06:12:56;;;;;;;29.08;14.15;;;;;;;;;;5056390;28;20028;-80
2023/02/13 06:15:42;;;;;;;25.30;13.05;;;;;;;;;;5055180;28;20024;-78
2023/02/13 06:18:28;;;;;;;21.65;12.30;;;;;;;;;;5054110;28;20025;-79
2023/02/13 06:21:13;;;;;;;25.13;13.10;;;;;;;;;;5055198;28;20080;-79
2023/02/13 06:23:59;;;;;;;30.80;14.65;;;;;;;;;;5055664;28;20029;-80
2023/02/13 06:26:44;;;;;;;24.90;13.45;;;;;;;;;;5056601;28;20013;-80
2023/02/13 06:29:31;;;;;;;32.47;13.98;;;;;;;;;;5055993;28;20451;-81
2023/02/13 06:32:17;;;;;;;25.55;13.65;;;;;;;;;;5056308;28;20410;-81
2023/02/13 06:35:03;;;;;;;27.02;14.13;;;;;;;;;;5056783;28;20036;-81
2023/02/13 06:37:48;;;;;;;30.60;14.75;;;;;;;;;;5055997;28;20023;-80
2023/02/13 06:40:34;;;;;;;27.95;15.18;;;;;;;;;;5054780;28;20052;-80
2023/02/13 06:43:20;;;;;;;28.50;15.40;;;;;;;;;;5055124;28;20025;-81
2023/02/13 06:46:05;;;;;;;34.72;16.70;;;;;;;;;;5053711;28;20068;-79
2023/02/13 06:48:51;;;;;;;36.78;18.00;;;;;;;;;;5055256;28;20017;-80
2023/02/13 06:51:37;;;;;;;31.42;17.58;;;;;;;;;;5054544;28;20434;-81
2023/02/13 06:54:22;;;;;;;32.03;17.88;;;;;;;;;;5055295;28;20131;-82
2023/02/13 06:57:08;;;;;;;32.67;17.02;;;;;;;;;;5054661;28;20017;-80
2023/02/13 06:59:53;;;;;;;36.20;17.42;;;;;;;;;;5054530;28;20453;-80
2023/02/13 07:02:39;;;;;;;32.42;17.77;;;;;;;;;;5055173;28;20033;-80
2023/02/13 07:05:25;;;;;;;31.38;17.38;;;;;;;;;;5057059;28;20410;-79
2023/02/13 07:08:11;;;;;;;37.42;18.33;;;;;;;;;;5074727;28;20017;-79
2023/02/13 07:10:57;;;;;;;38.13;19.15;;;;;;;;;;5055281;28;20091;-78
2023/02/13 07:13:42;;;;;;;37.30;20.13;;;;;;;;;;5056199;28;20025;-79
2023/02/13 07:16:28;;;;;;;41.65;20.13;;;;;;;;;;5054599;28;20013;-78
2023/02/13 07:19:14;;;;;;;40.30;20.33;;;;;;;;;;5055286;28;20021;-76
2023/02/13 07:21:59;;;;;;;41.80;20.83;;;;;;;;;;5054501;28;20040;-76
2023/02/13 07:24:45;;;;;;;39.40;19.42;;;;;;;;;;5058845;28;20075;-76
2023/02/13 07:27:30;;;;;;;33.88;18.52;;;;;;;;;;5066699;28;20021;-76
2023/02/13 07:30:16;;;;;;;39.80;18.60;;;;;;;;;;5063966;28;20032;-77
2023/02/13 07:33:02;;;;;;;38.20;19.30;;;;;;;;;;5058560;28;20045;-77
2023/02/13 07:35:49;;;;;;;36.42;18.17;;;;;;;;;;5054286;28;20017;-78
2023/02/13 07:38:35;;;;;;;27.73;15.95;;;;;;;;;;5057229;28;20398;-78
2023/02/13 07:41:20;;;;;;;31.40;17.10;;;;;;;;;;5063415;28;20043;-76
2023/02/13 07:44:06;;;;;;;29.25;16.38;;;;;;;;;;5069897;28;20025;-75
2023/02/13 07:46:51;;;;;;;31.42;16.85;;;;;;;;;;5062839;28;20025;-76
2023/02/13 07:49:37;;;;;;;31.15;15.90;;;;;;;;;;5059465;28;20067;-79
2023/02/13 07:52:23;;;;;;;23.75;10.95;;;;;;;;;;5058830;28;20020;-78
2023/02/13 07:55:10;;;;;;;19.63;10.70;;;;;;;;;;5057343;28;20032;-80
2023/02/13 07:57:56;;;;;;;21.65;10.55;;;;;;;;;;5057472;28;20479;-79
2023/02/13 08:00:41;;;;;;;22.15;10.07;;;;;;;;;;5058462;28;20479;-78
2023/02/13 08:03:27;;;;;;;21.67;10.55;;;;;;;;;;5057390;28;20021;-78
2023/02/13 08:06:12;;;;;;;18.65;10.43;;;;;;;;;;5057766;28;20065;-78
2023/02/13 08:12:03;;;;;;;19.10;10.07;;;;;;;;;;5058452;28;20467;-78
2023/02/13 08:14:51;;;;;;;19.20;9.70;;;;;;;;;;5058138;28;20024;-78
2023/02/13 08:17:37;;;;;;;20.65;10.20;;;;;;;;;;5056934;28;20070;-75
2023/02/13 08:20:23;;;;;;;20.00;10.90;;;;;;;;;;5057381;28;20025;-78
2023/02/13 08:23:09;;;;;;;21.67;10.60;;;;;;;;;;5057438;28;20025;-78
2023/02/13 08:25:58;;;;;;;18.63;9.68;;;;;;;;;;5057467;28;20046;-79
2023/02/13 08:28:43;;;;;;;16.10;9.68;;;;;;;;;;5055806;28;20025;-78
2023/02/13 08:31:34;;;;;;;19.13;9.15;;;;;;;;;;5056313;28;20045;-78
2023/02/13 08:34:22;;;;;;;18.83;8.60;;;;;;;;;;5056673;28;20028;-79
2023/02/13 08:37:08;;;;;;;14.60;8.52;;;;;;;;;;5056558;28;20017;-79
2023/02/13 08:39:55;;;;;;;15.20;8.38;;;;;;;;;;5056218;28;20021;-79
2023/02/13 08:42:40;;;;;;;17.48;9.00;;;;;;;;;;5056395;28;20127;-78
2023/02/13 08:45:26;;;;;;;14.10;8.27;;;;;;;;;;5056997;28;20335;-79
2023/02/13 08:48:12;;;;;;;28.02;9.88;;;;;;;;;;5055958;28;20102;-74
2023/02/13 08:50:57;;;;;;;17.50;8.93;;;;;;;;;;5056059;28;20040;-78
2023/02/13 08:53:43;;;;;;;15.15;9.82;;;;;;;;;;5055760;28;20020;-77
2023/02/13 08:56:28;;;;;;;15.80;9.93;;;;;;;;;;5055057;28;20025;-78
2023/02/13 08:59:14;;;;;;;22.15;11.50;;;;;;;;;;5056133;28;20049;-77
2023/02/13 09:02:00;;;;;;;19.05;11.00;;;;;;;;;;5057136;28;20094;-77
2023/02/13 09:04:45;;;;;;;19.80;11.00;;;;;;;;;;5058610;28;20044;-77
2023/02/13 09:07:31;;;;;;;20.05;11.10;;;;;;;;;;5057120;28;20021;-77
2023/02/13 09:10:24;;;;;;;20.08;10.80;;;;;;;;;;5056509;28;20170;-77
2023/02/13 09:13:09;;;;;;;17.15;10.20;;;;;;;;;;5055339;28;20025;-78
2023/02/13 09:15:58;;;;;;;18.20;8.75;;;;;;;;;;5055537;28;20048;-77
2023/02/13 09:18:46;;;;;;;36.75;17.15;;;;;;;;;;5056507;28;20411;-76
2023/02/13 09:21:31;;;;;;;20.38;9.23;;;;;;;;;;5056960;28;20053;-76
2023/02/13 09:24:19;;;;;;;20.20;8.95;;;;;;;;;;5055302;28;20078;-76
2023/02/13 09:27:06;;;;;;;13.75;8.35;;;;;;;;;;5055493;28;20342;-77
2023/02/13 09:29:52;;;;;;;12.55;8.07;;;;;;;;;;5055760;28;20031;-77
2023/02/13 09:32:40;;;;;;;16.65;8.77;;;;;;;;;;5054425;28;20045;-74
2023/02/13 09:35:27;;;;;;;13.52;9.10;;;;;;;;;;5055315;28;20056;-77
2023/02/13 09:38:13;;;;;;;14.80;8.50;;;;;;;;;;5055347;28;20021;-76
2023/02/13 09:41:19;;;;;;;13.95;8.68;;;;;;;;;;5055320;28;20028;-75
2023/02/13 09:44:05;;;;;;;14.20;8.48;;;;;;;;;;5055249;28;20463;-78
2023/02/13 09:46:50;;;;;;;14.27;9.15;;;;;;;;;;5054694;28;20454;-77
2023/02/13 09:49:37;;;;;;;17.73;9.63;;;;;;;;;;5054995;28;20465;-76
2023/02/13 09:52:24;;;;;;;16.75;9.90;;;;;;;;;;5055119;28;20138;-79
2023/02/13 09:55:17;;;;;;;18.45;10.20;;;;;;;;;;5055447;28;20429;-78
2023/02/13 09:58:15;;;;;;;25.45;10.75;;;;;;;;;;5054605;28;20020;-77
2023/02/13 10:01:02;;;;;;;20.77;10.73;;;;;;;;;;5053856;28;20021;-77
2023/02/13 10:04:01;;;;;;;21.52;12.32;;;;;;;;;;5055667;28;20053;-78
2023/02/13 10:06:52;;;;;;;26.70;12.93;;;;;;;;;;5055252;28;20028;-78
2023/02/13 10:09:38;;;;;;;21.90;13.23;;;;;;;;;;5055334;28;20351;-77
2023/02/13 10:12:29;;;;;;;23.85;13.68;;;;;;;;;;5054289;28;20112;-76
2023/02/13 10:15:15;;;;;;;24.30;13.70;;;;;;;;;;5056306;28;20345;-79
2023/02/13 10:18:05;;;;;;;24.77;14.32;;;;;;;;;;5056234;28;20016;-77
2023/02/13 10:20:52;;;;;;;23.27;13.90;;;;;;;;;;5055634;28;20028;-77
2023/02/13 10:23:45;;;;;;;25.23;14.02;;;;;;;;;;5055244;28;20017;-78
2023/02/13 10:26:47;;;;;;;22.90;13.82;;;;;;;;;;5055734;28;20031;-77
2023/02/13 10:32:49;;;;;;;29.67;17.30;;;;;;;;;;5055554;28;20045;-77
2023/02/13 10:35:34;;;;;;;33.90;19.48;;;;;;;;;;5059698;28;20029;-78
2023/02/13 10:38:21;;;;;;;35.55;20.77;;;;;;;;;;5071651;28;20048;-77
2023/02/13 10:41:22;;;;;;;35.92;20.83;;;;;;;;;;5058369;28;20021;-79
2023/02/13 10:44:27;;;;;;;35.30;20.13;;;;;;;;;;5054223;28;20033;-78
2023/02/13 10:47:31;;;;;;;39.35;22.38;;;;;;;;;;5054665;28;20013;-79
2023/02/13 10:50:19;;;;;;;39.22;20.88;;;;;;;;;;5054344;28;20021;-79
2023/02/13 10:53:05;;;;;;;37.10;21.75;;;;;;;;;;5054746;28;20112;-79
2023/02/13 10:55:51;;;;;;;38.15;22.42;;;;;;;;;;5056038;28;20138;-79
2023/02/13 10:58:55;;;;;;;36.65;21.48;;;;;;;;;;5063828;28;20049;-78
2023/02/13 11:02:10;;;;;;;34.13;20.27;;;;;;;;;;5054922;28;20032;-79
2023/02/13 11:05:00;;;;;;;30.25;18.88;;;;;;;;;;5051102;28;20072;-79
2023/02/13 11:07:49;;;;;;;34.70;20.23;;;;;;;;;;5054261;28;20049;-78
2023/02/13 11:10:35;;;;;;;32.65;19.77;;;;;;;;;;5055347;28;20029;-78
2023/02/13 11:13:24;;;;;;;33.83;19.27;;;;;;;;;;5058067;28;20323;-79
2023/02/13 11:16:12;;;;;;;33.92;19.98;;;;;;;;;;5057958;28;20057;-76
2023/02/13 11:18:58;;;;;;;36.70;21.48;;;;;;;;;;5053906;28;20102;-78
2023/02/13 11:21:44;;;;;;;37.25;22.67;;;;;;;;;;5037856;28;20096;-77
2023/02/13 11:24:30;;;;;;;41.25;21.05;;;;;;;;;;5038078;28;20060;-79
2023/02/13 11:27:22;;;;;;;39.55;22.80;;;;;;;;;;5038275;28;20102;-77
2023/02/13 11:30:26;;;;;;;34.85;21.88;;;;;;;;;;5038812;28;20025;-78
2023/02/13 11:33:26;;;;;;;38.88;22.83;;;;;;;;;;5037406;28;20547;-78
2023/02/13 11:36:18;;;;;;;40.72;24.70;;;;;;;;;;5037106;28;20109;-78
2023/02/13 11:39:05;;;;;;;36.80;23.85;;;;;;;;;;5036915;28;20367;-78
2023/02/13 11:41:53;;;;;;;42.58;25.77;;;;;;;;;;5039938;28;20422;-78
2023/02/13 11:44:40;;;;;;;44.38;25.80;;;;;;;;;;5037840;28;20036;-77
2023/02/13 11:47:39;;;;;;;43.65;27.35;;;;;;;;;;5037300;28;20048;-79
2023/02/13 11:50:25;;;;;;;44.95;26.85;;;;;;;;;;5037767;28;20036;-79
2023/02/13 11:53:21;;;;;;;42.60;26.65;;;;;;;;;;5036145;28;20014;-76
2023/02/13 11:56:09;;;;;;;43.95;26.55;;;;;;;;;;5036426;28;20025;-80
2023/02/13 11:59:02;;;;;;;48.92;28.08;;;;;;;;;;5036840;28;20100;-79
2023/02/13 12:02:00;;;;;;;47.05;28.02;;;;;;;;;;5038716;28;20100;-79
2023/02/13 12:04:47;;;;;;;50.40;29.45;;;;;;;;;;5039070;28;20049;-78
2023/02/13 12:07:33;;;;;;;44.97;28.75;;;;;;;;;;5038859;28;20109;-76
2023/02/13 12:10:29;;;;;;;44.40;28.30;;;;;;;;;;5038777;28;20032;-76
2023/02/13 12:13:26;;;;;;;45.08;28.42;;;;;;;;;;5036620;28;20032;-76
2023/02/13 12:16:41;;;;;;;48.22;28.85;;;;;;;;;;5037601;28;20457;-77
2023/02/13 12:19:35;;;;;;;48.33;28.98;;;;;;;;;;5033202;28;20029;-78
2023/02/13 12:22:30;;;;;;;49.15;28.40;;;;;;;;;;5037781;28;20083;-77
2023/02/13 12:25:34;;;;;;;50.38;28.75;;;;;;;;;;5037150;28;20036;-78
2023/02/13 12:28:24;;;;;;;47.28;28.33;;;;;;;;;;5037799;28;20454;-75
2023/02/13 12:31:26;;;;;;;50.88;30.70;;;;;;;;;;5037199;28;20021;-76
2023/02/13 12:34:30;;;;;;;51.35;30.17;;;;;;;;;;5037575;28;20106;-78
2023/02/13 12:37:34;;;;;;;51.67;29.38;;;;;;;;;;5036802;28;20025;-77
2023/02/13 12:40:29;;;;;;;50.90;31.08;;;;;;;;;;5036658;28;20080;-76
2023/02/13 12:43:27;;;;;;;54.55;30.67;;;;;;;;;;5036728;28;20091;-76
2023/02/13 12:46:51;;;;;;;52.88;31.73;;;;;;;;;;5046548;28;20029;-76
2023/02/13 12:49:49;;;;;;;51.10;31.65;;;;;;;;;;5006492;28;20435;-76
2023/02/13 12:52:46;;;;;;;55.00;33.45;;;;;;;;;;4996920;28;20049;-74
2023/02/13 12:55:47;;;;;;;53.33;31.00;;;;;;;;;;5036374;28;20021;-76
2023/02/13 12:58:44;;;;;;;55.55;33.85;;;;;;;;;;5036630;28;20068;-78
2023/02/13 13:01:48;;;;;;;53.45;33.05;;;;;;;;;;5035280;28;20052;-75
2023/02/13 13:04:52;;;;;;;54.70;33.88;;;;;;;;;;5034902;28;20025;-76
2023/02/13 13:07:38;;;;;;;52.83;33.38;;;;;;;;;;5036300;28;20104;-75
2023/02/13 13:10:33;;;;;;;54.38;32.72;;;;;;;;;;5036481;28;20021;-73
2023/02/13 13:13:19;;;;;;;54.45;32.00;;;;;;;;;;5034915;28;20021;-76
2023/02/13 13:16:07;;;;;;;53.53;33.28;;;;;;;;;;5034079;28;20017;-75
2023/02/13 13:18:58;;;;;;;55.40;34.33;;;;;;;;;;5034229;28;20022;-75
2023/02/13 13:21:53;;;;;;;57.65;35.90;;;;;;;;;;5032952;28;20014;-76
2023/02/13 13:24:47;;;;;;;65.95;36.95;;;;;;;;;;5034519;28;20025;-80
2023/02/13 13:27:43;;;;;;;58.92;34.60;;;;;;;;;;5033090;28;20104;-80
2023/02/13 13:30:30;;;;;;;59.92;35.63;;;;;;;;;;5050664;28;20021;-81
2023/02/13 13:33:20;;;;;;;58.08;35.92;;;;;;;;;;5053651;28;20111;-80
2023/02/13 13:36:13;;;;;;;61.55;36.58;;;;;;;;;;5054521;28;20021;-76
2023/02/13 13:39:05;;;;;;;66.85;37.40;;;;;;;;;;5054480;28;20029;-77
2023/02/13 13:41:50;;;;;;;64.55;37.08;;;;;;;;;;5054919;28;20087;-76
2023/02/13 13:44:54;;;;;;;64.28;37.15;;;;;;;;;;5055206;28;20017;-79
2023/02/13 13:47:39;;;;;;;66.75;37.33;;;;;;;;;;5055334;28;20094;-78
2023/02/13 13:50:27;;;;;;;63.80;37.90;;;;;;;;;;5054574;28;20028;-78
2023/02/13 13:53:22;;;;;;;65.38;37.72;;;;;;;;;;5055317;28;20049;-78
2023/02/13 13:56:08;;;;;;;61.40;36.65;;;;;;;;;;5054908;28;20017;-80
2023/02/13 13:58:55;;;;;;;64.15;38.78;;;;;;;;;;5055672;28;20024;-78
2023/02/13 14:01:41;;;;;;;64.93;38.55;;;;;;;;;;5055192;28;20036;-78
2023/02/13 14:04:33;;;;;;;65.68;38.55;;;;;;;;;;5053867;28;20489;-77
2023/02/13 14:07:22;;;;;;;69.13;39.28;;;;;;;;;;5054520;28;20033;-78
2023/02/13 14:10:20;;;;;;;66.18;39.30;;;;;;;;;;5054596;28;20082;-79
2023/02/13 14:13:07;;;;;;;69.03;42.30;;;;;;;;;;5054831;28;20095;-78
2023/02/13 14:15:53;;;;;;;71.03;41.50;;;;;;;;;;5054726;28;20029;-79
2023/02/13 14:18:44;;;;;;;81.82;44.58;;;;;;;;;;5054814;28;20049;-78
2023/02/13 14:21:29;;;;;;;70.38;40.40;;;;;;;;;;5054291;28;20043;-77
2023/02/13 14:24:17;;;;;;;75.88;42.05;;;;;;;;;;5054894;28;20017;-79
2023/02/13 14:27:18;;;;;;;69.85;41.20;;;;;;;;;;5053852;28;20426;-77
2023/02/13 14:30:05;;;;;;;74.22;42.55;;;;;;;;;;5054074;28;20078;-77
2023/02/13 14:32:51;;;;;;;75.22;43.05;;;;;;;;;;5053651;28;20095;-78
2023/02/13 14:35:37;;;;;;;75.40;43.08;;;;;;;;;;5055678;28;20067;-76
2023/02/13 14:38:23;;;;;;;78.95;44.38;;;;;;;;;;5054246;28;20032;-79
2023/02/13 14:41:28;;;;;;;74.68;43.50;;;;;;;;;;5054150;28;20021;-78
2023/02/13 14:44:31;;;;;;;80.45;45.53;;;;;;;;;;5053710;28;20117;-80
2023/02/13 14:47:20;;;;;;;84.70;44.92;;;;;;;;;;5053962;28;20469;-77
2023/02/13 14:50:12;;;;;;;88.47;45.92;;;;;;;;;;5054579;28;20029;-78
2023/02/13 14:52:59;;;;;;;81.47;45.47;;;;;;;;;;5054313;28;20120;-79
2023/02/13 14:55:46;;;;;;;83.72;46.28;;;;;;;;;;5053972;28;20026;-79
2023/02/13 14:58:36;;;;;;;86.05;47.58;;;;;;;;;;5053397;28;20025;-79
2023/02/13 15:01:28;;;;;;;79.32;46.13;;;;;;;;;;5053904;28;20357;-77
2023/02/13 15:04:17;;;;;;;101.35;57.50;;;;;;;;;;5053812;28;20040;-76
2023/02/13 15:07:05;;;;;;;94.45;53.38;;;;;;;;;;5054490;28;20108;-77
2023/02/13 15:09:52;;;;;;;79.90;46.83;;;;;;;;;;5053371;28;20025;-78
2023/02/13 15:12:38;;;;;;;79.07;44.90;;;;;;;;;;5054903;28;20013;-78
2023/02/13 15:15:25;;;;;;;77.25;44.72;;;;;;;;;;5055866;28;20013;-77
2023/02/13 15:18:17;;;;;;;79.43;45.92;;;;;;;;;;5054412;28;20032;-77
2023/02/13 15:21:03;;;;;;;78.72;45.10;;;;;;;;;;5055604;28;20047;-78
2023/02/13 15:23:54;;;;;;;75.72;43.00;;;;;;;;;;5053243;28;20017;-77
2023/02/13 15:26:40;;;;;;;81.35;45.28;;;;;;;;;;5054799;28;20017;-77
2023/02/13 15:29:26;;;;;;;78.43;43.92;;;;;;;;;;5054469;28;20346;-77
2023/02/13 15:32:18;;;;;;;80.80;44.45;;;;;;;;;;5053695;28;20049;-76
2023/02/13 15:35:22;;;;;;;77.63;44.72;;;;;;;;;;5055025;28;20031;-77
2023/02/13 15:38:26;;;;;;;91.22;43.17;;;;;;;;;;5053980;28;20036;-77
2023/02/13 15:41:15;;;;;;;78.40;43.47;;;;;;;;;;5054593;28;20104;-80
2023/02/13 15:44:01;;;;;;;81.30;44.35;;;;;;;;;;5053447;28;20017;-80
2023/02/13 15:46:48;;;;;;;82.32;44.40;;;;;;;;;;5052856;28;20021;-76
2023/02/13 15:49:37;;;;;;;86.88;46.72;;;;;;;;;;5053276;28;20025;-79
2023/02/13 15:52:30;;;;;;;76.75;42.97;;;;;;;;;;5052916;28;20025;-80
2023/02/13 15:55:27;;;;;;;76.13;43.63;;;;;;;;;;5054203;28;20341;-80
2023/02/13 15:58:13;;;;;;;80.78;44.30;;;;;;;;;;5054727;28;20017;-77
2023/02/13 16:01:01;;;;;;;78.47;45.03;;;;;;;;;;5057145;28;20051;-76
2023/02/13 16:03:54;;;;;;;82.18;44.67;;;;;;;;;;5057592;28;20029;-77
2023/02/13 16:06:41;;;;;;;85.35;44.55;;;;;;;;;;5056882;28;20031;-79
2023/02/13 16:09:34;;;;;;;84.20;44.63;;;;;;;;;;5056745;28;20059;-77
2023/02/13 16:12:26;;;;;;;76.13;42.97;;;;;;;;;;5056796;28;20025;-77
2023/02/13 16:15:15;;;;;;;82.22;44.22;;;;;;;;;;5056534;28;20013;-79
2023/02/13 16:18:02;;;;;;;82.18;44.45;;;;;;;;;;5057066;28;20137;-76
2023/02/13 16:20:52;;;;;;;82.60;44.67;;;;;;;;;;5056845;28;20093;-76
2023/02/13 16:23:38;;;;;;;82.20;44.33;;;;;;;;;;5057338;28;20023;-77
2023/02/13 16:26:24;;;;;;;85.03;47.33;;;;;;;;;;5056508;28;20102;-78
2023/02/13 16:29:20;;;;;;;86.50;46.08;;;;;;;;;;5056860;28;20017;-76
2023/02/13 16:32:10;;;;;;;86.15;47.10;;;;;;;;;;5057436;28;20071;-75
2023/02/13 16:35:13;;;;;;;85.25;44.55;;;;;;;;;;5057181;28;20017;-76
2023/02/13 16:38:01;;;;;;;86.75;47.05;;;;;;;;;;5057434;28;20017;-75
2023/02/13 16:40:46;;;;;;;82.43;46.55;;;;;;;;;;5056479;28;20033;-76
2023/02/13 16:43:35;;;;;;;89.65;48.50;;;;;;;;;;5057667;28;20013;-75
2023/02/13 16:46:32;;;;;;;92.05;48.80;;;;;;;;;;5056590;28;20453;-76
2023/02/13 16:49:19;;;;;;;90.03;48.35;;;;;;;;;;5057114;28;20057;-76
2023/02/13 16:52:16;;;;;;;94.68;48.88;;;;;;;;;;5056693;28;20021;-78
2023/02/13 16:55:05;;;;;;;90.55;50.55;;;;;;;;;;5057018;28;20021;-76
2023/02/13 16:57:50;;;;;;;99.88;51.45;;;;;;;;;;5056057;28;20013;-76
2023/02/13 17:00:36;;;;;;;95.22;52.63;;;;;;;;;;5055709;28;20021;-76
2023/02/13 17:03:22;;;;;;;98.68;52.45;;;;;;;;;;5055938;28;20090;-76
2023/02/13 17:06:11;;;;;;;102.57;54.08;;;;;;;;;;5055991;28;20020;-75
2023/02/13 17:08:57;;;;;;;106.78;55.33;;;;;;;;;;5057656;28;20021;-75
2023/02/13 17:11:48;;;;;;;99.43;52.50;;;;;;;;;;5054816;28;20094;-77
2023/02/13 17:14:33;;;;;;;103.07;55.17;;;;;;;;;;5056062;28;20028;-76
2023/02/13 17:17:20;;;;;;;91.65;50.28;;;;;;;;;;5055362;28;20400;-76
2023/02/13 17:20:06;;;;;;;93.40;51.17;;;;;;;;;;5054919;28;20025;-76